createdAt,value
2022-12-12T00:00:35.582Z,100856.91
2022-12-12T00:03:09.898Z,100850.50
2022-12-12T00:05:41.578Z,100850.84
2022-12-12T00:08:14.829Z,100853.19
2022-12-12T00:10:48.026Z,100847.13
2022-12-12T00:13:21.285Z,100843.84
2022-12-12T00:15:52.402Z,100844.19
2022-12-12T00:18:23.374Z,100841.75
2022-12-12T00:20:56.072Z,100855.34
2022-12-12T00:23:27.587Z,100850.88
2022-12-12T00:26:02.656Z,100848.44
2022-12-12T00:28:35.492Z,100851.97
2022-12-12T00:31:08.503Z,100847.88
2022-12-12T00:33:39.042Z,100852.19
2022-12-12T00:36:11.197Z,100852.56
2022-12-12T00:38:42.430Z,100852.09
2022-12-12T00:41:14.444Z,100850.13
2022-12-12T00:43:47.006Z,100838.81
2022-12-12T00:46:19.787Z,100828.75
2022-12-12T00:48:51.018Z,100837.88
2022-12-12T00:51:24.227Z,100835.44
2022-12-12T00:53:55.091Z,100845.81
2022-12-12T00:56:27.890Z,100845.81
2022-12-12T00:59:00.497Z,100843.03
2022-12-12T01:01:33.457Z,100844.66
2022-12-12T01:04:05.299Z,100847.84
2022-12-12T01:06:37.185Z,100840.22
2022-12-12T01:09:07.599Z,100830.97
2022-12-12T01:11:38.091Z,100836.94
2022-12-12T01:14:10.000Z,100835.31
2022-12-12T01:16:42.948Z,100828.06
2022-12-12T01:19:13.219Z,100825.59
2022-12-12T01:21:44.996Z,100838.84
2022-12-12T01:24:18.339Z,100849.25
2022-12-12T01:26:52.263Z,100839.19
2022-12-12T01:29:25.286Z,100845.63
2022-12-12T01:31:58.783Z,100842.81
2022-12-12T01:34:30.587Z,100828.31
2022-12-12T01:37:01.583Z,100821.44
2022-12-12T01:39:32.200Z,100812.53
2022-12-12T01:42:02.619Z,100818.53
2022-12-12T01:44:48.303Z,100815.25
2022-12-12T01:47:22.340Z,100816.44
2022-12-12T01:49:59.397Z,100810.81
2022-12-12T01:52:43.343Z,100791.16
2022-12-12T01:55:20.384Z,100781.09
2022-12-12T01:57:56.715Z,100782.28
2022-12-12T02:00:30.584Z,100777.03
2022-12-12T02:03:02.338Z,100781.00
2022-12-12T02:05:38.048Z,100765.78
2022-12-12T02:08:12.014Z,100760.50
2022-12-12T02:10:43.148Z,100756.44
2022-12-12T02:13:20.649Z,100738.69
2022-12-12T02:16:10.938Z,100738.59
2022-12-12T02:18:55.872Z,100740.13
2022-12-12T02:21:37.682Z,100742.91
2022-12-12T02:25:03.069Z,100731.22
2022-12-12T02:28:22.909Z,100743.66
2022-12-12T02:31:18.496Z,100740.84
2022-12-12T02:34:02.883Z,100743.28
2022-12-12T02:36:45.995Z,100744.94
2022-12-12T02:39:28.985Z,100745.38
2022-12-12T02:42:13.608Z,100739.78
2022-12-12T02:44:57.917Z,100749.84
2022-12-12T02:47:37.284Z,100745.81
2022-12-12T02:50:13.286Z,100748.28
2022-12-12T02:52:48.937Z,100745.13
2022-12-12T02:55:21.530Z,100755.19
2022-12-12T02:57:54.606Z,100751.56
2022-12-12T03:00:25.645Z,100746.75
2022-12-12T03:03:37.067Z,100746.75
2022-12-12T03:07:04.018Z,100759.16
2022-12-12T03:09:53.758Z,100767.56
2022-12-12T03:12:43.012Z,100765.59
2022-12-12T03:15:24.809Z,100770.00
2022-12-12T03:18:12.873Z,100780.44
2022-12-12T03:20:55.924Z,100774.03
2022-12-12T03:23:32.530Z,100767.47
2022-12-12T03:26:11.418Z,100777.91
2022-12-12T03:28:49.337Z,100785.38
2022-12-12T03:31:28.621Z,100792.97
2022-12-12T03:34:09.155Z,100786.94
2022-12-12T03:36:47.068Z,100788.44
2022-12-12T03:39:23.523Z,100789.13
2022-12-12T03:42:03.097Z,100789.47
2022-12-12T03:44:41.866Z,100791.84
2022-12-12T03:47:18.949Z,100787.72
2022-12-12T03:49:59.604Z,100782.84
2022-12-12T03:52:37.997Z,100771.50
2022-12-12T03:55:16.742Z,100771.38
2022-12-12T03:57:56.247Z,100775.72
2022-12-12T04:00:26.821Z,100776.91
2022-12-12T04:03:08.717Z,100783.34
2022-12-12T04:06:02.565Z,100782.50
2022-12-12T04:08:33.332Z,100770.50
2022-12-12T04:11:34.921Z,100769.31
2022-12-12T04:14:32.942Z,100764.03
2022-12-12T04:17:08.254Z,100760.44
2022-12-12T04:20:05.703Z,100772.81
2022-12-12T04:23:18.287Z,100776.00
2022-12-12T04:26:22.381Z,100773.53
2022-12-12T04:29:10.285Z,100781.47
2022-12-12T04:31:50.277Z,100783.94
2022-12-12T04:34:32.691Z,100795.63
2022-12-12T04:37:06.248Z,100796.44
2022-12-12T04:39:42.827Z,100795.25
2022-12-12T04:42:20.096Z,100792.47
2022-12-12T04:44:55.432Z,100790.47
2022-12-12T04:47:29.520Z,100781.25
2022-12-12T04:50:03.790Z,100784.03
2022-12-12T04:52:36.899Z,100788.00
2022-12-12T04:55:15.995Z,100792.81
2022-12-12T04:57:51.905Z,100787.53
2022-12-12T05:00:24.401Z,100778.31
2022-12-12T05:03:04.793Z,100786.28
2022-12-12T05:05:43.836Z,100785.09
2022-12-12T05:08:22.839Z,100791.53
2022-12-12T05:10:59.937Z,100794.00
2022-12-12T05:13:35.113Z,100804.03
2022-12-12T05:16:13.647Z,100791.28
2022-12-12T05:18:45.554Z,100798.53
2022-12-12T05:21:18.429Z,100800.63
2022-12-12T05:23:49.222Z,100805.53
2022-12-12T05:26:27.285Z,100803.66
2022-12-12T05:29:05.277Z,100802.94
2022-12-12T05:31:37.793Z,100798.63
2022-12-12T05:34:08.687Z,100802.69
2022-12-12T05:36:42.271Z,100803.97
2022-12-12T05:39:13.018Z,100798.03
2022-12-12T05:41:47.041Z,100801.28
2022-12-12T05:44:18.096Z,100806.56
2022-12-12T05:46:48.707Z,100805.03
2022-12-12T05:49:20.047Z,100812.75
2022-12-12T05:51:50.823Z,100820.44
2022-12-12T05:54:21.987Z,100827.00
2022-12-12T05:56:55.226Z,100829.91
2022-12-12T05:59:26.107Z,100828.03
2022-12-12T06:01:56.619Z,100836.53
2022-12-12T06:04:27.850Z,100838.28
2022-12-12T06:07:01.148Z,100841.28
2022-12-12T06:09:32.334Z,100846.75
2022-12-12T06:12:05.386Z,100839.56
2022-12-12T06:14:36.658Z,100841.59
2022-12-12T06:17:08.067Z,100838.56
2022-12-12T06:19:39.555Z,100842.03
2022-12-12T06:22:10.806Z,100843.03
2022-12-12T06:24:41.186Z,100850.88
2022-12-12T06:27:20.157Z,100843.00
2022-12-12T06:29:51.434Z,100851.69
2022-12-12T06:32:22.646Z,100848.22
2022-12-12T06:34:54.193Z,100858.81
2022-12-12T06:37:53.092Z,100856.91
2022-12-12T06:40:27.689Z,100855.38
2022-12-12T06:43:00.715Z,100850.56
2022-12-12T06:45:30.736Z,100857.78
2022-12-12T06:48:01.688Z,100851.31
2022-12-12T06:50:31.690Z,100860.53
2022-12-12T06:53:02.805Z,100857.56
2022-12-12T06:55:33.036Z,100857.84
2022-12-12T06:58:12.989Z,100856.81
2022-12-12T07:00:45.166Z,100864.28
2022-12-12T07:03:16.793Z,100869.28
2022-12-12T07:05:48.956Z,100865.41
2022-12-12T07:08:19.801Z,100867.56
2022-12-12T07:10:51.131Z,100871.75
2022-12-12T07:13:23.884Z,100876.72
2022-12-12T07:15:59.211Z,100877.66
2022-12-12T07:18:30.661Z,100884.25
2022-12-12T07:21:00.496Z,100878.31
2022-12-12T07:23:31.835Z,100874.78
2022-12-12T07:26:10.131Z,100870.09
2022-12-12T07:28:42.217Z,100866.09
2022-12-12T07:31:18.083Z,100865.75
2022-12-12T07:33:53.019Z,100872.28
2022-12-12T07:36:23.595Z,100872.72
2022-12-12T07:38:54.738Z,100874.41
2022-12-12T07:41:28.710Z,100865.53
2022-12-12T07:44:03.330Z,100872.41
2022-12-12T07:46:34.440Z,100872.84
2022-12-12T07:49:05.757Z,100868.41
2022-12-12T07:51:42.891Z,100859.91
2022-12-12T07:54:16.636Z,100861.97
2022-12-12T07:56:47.452Z,100861.19
2022-12-12T07:59:19.904Z,100861.16
2022-12-12T08:01:50.224Z,100855.50
2022-12-12T08:04:21.673Z,100856.69
2022-12-12T08:07:00.657Z,100850.97
2022-12-12T08:09:34.728Z,100844.84
2022-12-12T08:12:06.435Z,100852.47
2022-12-12T08:14:41.123Z,100841.78
2022-12-12T08:17:12.634Z,100837.19
2022-12-12T08:19:45.587Z,100834.19
2022-12-12T08:22:31.214Z,100826.31
2022-12-12T08:25:04.842Z,100820.03
2022-12-12T08:27:37.952Z,100817.38
2022-12-12T08:30:13.986Z,100819.50
2022-12-12T08:32:44.311Z,100796.34
2022-12-12T08:35:16.177Z,100807.72
2022-12-12T08:37:47.913Z,100803.53
2022-12-12T08:40:20.059Z,100801.53
2022-12-12T08:43:02.479Z,100803.41
2022-12-12T08:45:36.131Z,100795.72
2022-12-12T08:48:09.679Z,100797.06
2022-12-12T08:50:42.451Z,100792.44
2022-12-12T08:53:24.192Z,100790.75
2022-12-12T08:55:55.744Z,100785.44
2022-12-12T08:58:25.685Z,100775.19
2022-12-12T09:00:58.326Z,100782.81
2022-12-12T09:03:29.688Z,100776.56
2022-12-12T09:06:01.046Z,100773.91
2022-12-12T09:08:31.151Z,100774.53
2022-12-12T09:11:01.191Z,100767.44
2022-12-12T09:13:31.497Z,100764.31
2022-12-12T09:16:05.856Z,100761.25
2022-12-12T09:18:47.777Z,100752.41
2022-12-12T09:21:19.804Z,100755.34
2022-12-12T09:23:50.010Z,100743.19
2022-12-12T09:26:20.622Z,100744.88
2022-12-12T09:28:54.235Z,100745.66
2022-12-12T09:31:26.742Z,100744.84
2022-12-12T09:34:02.338Z,100739.94
2022-12-12T09:36:44.146Z,100738.69
2022-12-12T09:39:14.933Z,100733.41
2022-12-12T09:41:45.424Z,100732.63
2022-12-12T09:44:22.911Z,100720.88
2022-12-12T09:46:58.984Z,100722.13
2022-12-12T09:49:43.978Z,100720.50
2022-12-12T09:52:18.155Z,100720.56
2022-12-12T09:54:48.437Z,100722.25
2022-12-12T09:57:30.004Z,100723.09
2022-12-12T10:00:09.032Z,100710.13
2022-12-12T10:03:12.353Z,100711.38
2022-12-12T10:06:13.501Z,100704.53
2022-12-12T10:08:59.592Z,100700.91
2022-12-12T10:11:54.892Z,100704.16
2022-12-12T10:14:35.488Z,100702.94
2022-12-12T10:17:24.215Z,100701.72
2022-12-12T10:20:02.610Z,100689.97
2022-12-12T10:22:43.688Z,100694.03
2022-12-12T10:25:25.452Z,100689.97
2022-12-12T10:28:04.810Z,100687.56
2022-12-12T10:30:53.697Z,100679.41
2022-12-12T10:33:39.685Z,100675.34
2022-12-12T10:36:21.571Z,100674.13
2022-12-12T10:39:14.784Z,100676.94
2022-12-12T10:41:54.624Z,100672.06
2022-12-12T10:44:47.857Z,100665.16
2022-12-12T10:47:18.591Z,100664.34
2022-12-12T10:50:15.970Z,100653.41
2022-12-12T10:52:47.337Z,100652.16
2022-12-12T10:55:32.602Z,100654.16
2022-12-12T11:01:45.000Z,100644.81
2022-12-12T11:04:17.468Z,100643.56
2022-12-12T11:06:52.709Z,100636.28
2022-12-12T11:09:26.084Z,100636.28
2022-12-12T11:12:06.215Z,100635.44
2022-12-12T11:14:39.728Z,100631.38
2022-12-12T11:17:25.726Z,100626.91
2022-12-12T11:19:58.445Z,100625.28
2022-12-12T11:22:41.405Z,100634.53
2022-12-12T11:25:28.993Z,100627.63
2022-12-12T11:28:06.820Z,100621.97
2022-12-12T11:30:43.253Z,100636.91
2022-12-12T11:33:25.309Z,100631.22
2022-12-12T11:35:58.232Z,100630.38
2022-12-12T11:38:39.519Z,100624.72
2022-12-12T11:41:13.525Z,100622.66
2022-12-12T11:44:03.505Z,100627.09
2022-12-12T11:46:37.198Z,100627.88
2022-12-12T11:49:21.465Z,100624.63
2022-12-12T11:52:00.117Z,100629.47
2022-12-12T11:54:33.887Z,100620.56
2022-12-12T11:57:13.105Z,100624.19
2022-12-12T12:00:11.110Z,100618.94
2022-12-12T12:03:23.879Z,100624.97
2022-12-12T12:06:30.528Z,100616.44
2022-12-12T12:09:32.035Z,100620.88
2022-12-12T12:12:14.926Z,100615.16
2022-12-12T12:15:20.450Z,100611.91
2022-12-12T12:18:31.672Z,100617.97
2022-12-12T12:21:32.186Z,100615.13
2022-12-12T12:24:46.704Z,100616.69
2022-12-12T12:27:29.724Z,100611.84
2022-12-12T12:30:21.595Z,100605.75
2022-12-12T12:33:28.933Z,100614.66
2022-12-12T12:36:21.331Z,100617.06
2022-12-12T12:39:22.885Z,100607.31
2022-12-12T12:42:13.207Z,100609.75
2022-12-12T12:44:54.460Z,100604.47
2022-12-12T12:47:39.572Z,100607.69
2022-12-12T12:50:21.457Z,100602.44
2022-12-12T12:53:02.225Z,100614.94
2022-12-12T12:55:42.775Z,100604.00
2022-12-12T12:58:22.576Z,100608.03
2022-12-12T13:01:02.931Z,100608.44
2022-12-12T13:03:44.993Z,100607.66
2022-12-12T13:06:24.941Z,100610.06
2022-12-12T13:09:07.619Z,100605.16
2022-12-12T13:11:46.877Z,100602.75
2022-12-12T13:14:30.430Z,100608.78
2022-12-12T13:17:08.176Z,100607.19
2022-12-12T13:19:44.952Z,100614.03
2022-12-12T13:22:43.921Z,100608.75
2022-12-12T13:25:49.823Z,100603.91
2022-12-12T13:28:29.974Z,100601.03
2022-12-12T13:31:43.195Z,100601.41
2022-12-12T13:34:20.331Z,100597.34
2022-12-12T13:36:58.959Z,100602.97
2022-12-12T13:39:37.060Z,100606.59
2022-12-12T13:42:10.771Z,100595.69
2022-12-12T13:44:46.268Z,100606.16
2022-12-12T13:48:07.463Z,100602.06
2022-12-12T13:50:37.508Z,100600.84
2022-12-12T13:53:23.036Z,100611.31
2022-12-12T13:56:36.967Z,100606.47
2022-12-12T13:59:29.804Z,100609.66
2022-12-12T14:02:03.086Z,100607.25
2022-12-12T14:04:36.017Z,100613.28
2022-12-12T14:07:16.980Z,100615.28
2022-12-12T14:09:51.588Z,100612.03
2022-12-12T14:12:31.406Z,100614.47
2022-12-12T14:15:07.297Z,100614.81
2022-12-12T14:17:43.087Z,100611.56
2022-12-12T14:20:33.815Z,100610.78
2022-12-12T14:23:30.030Z,100615.19
2022-12-12T14:26:02.670Z,100613.94
2022-12-12T14:28:36.387Z,100612.34
2022-12-12T14:31:30.590Z,100616.38
2022-12-12T14:34:32.327Z,100619.16
2022-12-12T14:37:30.674Z,100620.72
2022-12-12T14:40:15.601Z,100619.50
2022-12-12T14:43:15.363Z,100617.06
2022-12-12T14:46:00.477Z,100617.81
2022-12-12T14:48:35.553Z,100612.59
2022-12-12T14:51:16.824Z,100624.25
2022-12-12T14:54:34.897Z,100623.84
2022-12-12T14:57:13.069Z,100625.75
2022-12-12T15:00:26.626Z,100626.97
2022-12-12T15:03:31.877Z,100628.13
2022-12-12T15:06:41.045Z,100640.56
2022-12-12T15:09:25.412Z,100636.88
2022-12-12T15:11:58.321Z,100634.03
2022-12-12T15:14:29.846Z,100633.97
2022-12-12T15:17:08.010Z,100627.91
2022-12-12T15:19:49.239Z,100627.88
2022-12-12T15:22:27.519Z,100637.91
2022-12-12T15:24:59.891Z,100634.66
2022-12-12T15:27:39.986Z,100639.06
2022-12-12T15:30:23.308Z,100642.66
2022-12-12T15:32:54.243Z,100639.00
2022-12-12T15:35:27.115Z,100639.34
2022-12-12T15:38:03.520Z,100646.59
2022-12-12T15:40:36.195Z,100652.19
2022-12-12T15:43:14.969Z,100650.56
2022-12-12T15:45:51.888Z,100653.75
2022-12-12T15:48:25.962Z,100654.53
2022-12-12T15:51:01.374Z,100656.91
2022-12-12T15:53:50.445Z,100657.66
2022-12-12T15:56:52.220Z,100658.78
2022-12-12T15:59:34.732Z,100655.53
2022-12-12T16:02:28.808Z,100664.75
2022-12-12T16:05:10.238Z,100659.06
2022-12-12T16:07:41.463Z,100658.63
2022-12-12T16:10:26.997Z,100653.75
2022-12-12T16:13:05.412Z,100662.16
2022-12-12T16:15:38.922Z,100670.16
2022-12-12T16:18:20.316Z,100670.13
2022-12-12T16:20:53.754Z,100680.97
2022-12-12T16:23:35.406Z,100672.44
2022-12-12T16:26:08.047Z,100678.47
2022-12-12T16:28:38.377Z,100678.03
2022-12-12T16:31:18.774Z,100674.78
2022-12-12T16:33:48.789Z,100679.97
2022-12-12T16:36:20.087Z,100685.19
2022-12-12T16:38:50.853Z,100686.38
2022-12-12T16:41:23.983Z,100685.94
2022-12-12T16:43:57.270Z,100681.06
2022-12-12T16:46:28.448Z,100678.63
2022-12-12T16:49:05.151Z,100685.00
2022-12-12T16:51:38.429Z,100685.75
2022-12-12T16:54:09.226Z,100689.34
2022-12-12T16:56:53.491Z,100685.69
2022-12-12T16:59:24.288Z,100681.63
2022-12-12T17:01:54.755Z,100681.19
2022-12-12T17:04:31.077Z,100683.22
2022-12-12T17:07:01.772Z,100673.47
2022-12-12T17:09:31.730Z,100681.50
2022-12-12T17:12:03.411Z,100681.50
2022-12-12T17:14:33.463Z,100678.22
2022-12-12T17:17:06.820Z,100692.31
2022-12-12T17:19:38.103Z,100688.25
2022-12-12T17:22:09.910Z,100685.78
2022-12-12T17:24:43.070Z,100693.44
2022-12-12T17:27:14.687Z,100682.91
2022-12-12T17:29:46.041Z,100676.84
2022-12-12T17:32:24.236Z,100682.06
2022-12-12T17:34:55.925Z,100678.78
2022-12-12T17:37:28.023Z,100678.34
2022-12-12T17:39:58.429Z,100684.38
2022-12-12T17:42:32.559Z,100676.28
2022-12-12T17:45:03.190Z,100669.41
2022-12-12T17:47:33.278Z,100664.16
2022-12-12T17:50:03.387Z,100665.31
2022-12-12T17:52:33.587Z,100662.06
2022-12-12T17:55:53.188Z,100664.09
2022-12-12T17:57:57.233Z,100653.56
2022-12-12T18:00:28.060Z,100655.94
2022-12-12T18:03:01.012Z,100652.66
2022-12-12T18:05:32.447Z,100662.31
2022-12-12T18:08:05.400Z,100664.69
2022-12-12T18:10:39.581Z,100659.41
2022-12-12T18:13:14.226Z,100663.00
2022-12-12T18:15:44.932Z,100663.38
2022-12-12T18:18:14.971Z,100664.53
2022-12-12T18:21:12.898Z,100660.94
2022-12-12T18:23:47.216Z,100663.69
2022-12-12T18:26:29.966Z,100659.22
2022-12-12T18:29:04.556Z,100654.34
2022-12-12T18:31:35.694Z,100653.09
2022-12-12T18:34:07.559Z,100659.91
2022-12-12T18:39:22.574Z,100650.53
2022-12-12T18:41:52.861Z,100653.72
2022-12-12T18:44:24.763Z,100663.00
2022-12-12T18:46:56.362Z,100669.81
2022-12-12T18:49:26.475Z,100670.63
2022-12-12T18:52:00.563Z,100675.81
2022-12-12T18:54:32.137Z,100673.00
2022-12-12T18:57:02.297Z,100677.00
2022-12-12T18:59:34.107Z,100680.19
2022-12-12T19:02:15.808Z,100680.19
2022-12-12T19:04:47.454Z,100682.56
2022-12-12T19:07:18.918Z,100677.31
2022-12-12T19:09:48.923Z,100682.09
2022-12-12T19:12:19.453Z,100688.94
2022-12-12T19:15:16.735Z,100679.66
2022-12-12T19:17:58.138Z,100679.22
2022-12-12T19:20:32.880Z,100682.03
2022-12-12T19:23:02.883Z,100687.25
2022-12-12T19:25:42.553Z,100677.16
2022-12-12T19:28:17.335Z,100676.34
2022-12-12T19:30:49.268Z,100678.72
2022-12-12T19:33:19.346Z,100679.09
2022-12-12T19:35:49.432Z,100681.09
2022-12-12T19:38:24.312Z,100682.28
2022-12-12T19:40:55.460Z,100671.38
2022-12-12T19:43:28.064Z,100674.56
2022-12-12T19:46:08.411Z,100679.41
2022-12-12T19:48:40.373Z,100672.13
2022-12-12T19:51:38.836Z,100670.50
2022-12-12T19:54:23.130Z,100668.88
2022-12-12T19:56:55.244Z,100663.97
2022-12-12T19:59:26.467Z,100667.63
2022-12-12T20:02:01.423Z,100667.16
2022-12-12T20:04:31.804Z,100662.72
2022-12-12T20:07:02.067Z,100669.53
2022-12-12T20:09:36.767Z,100662.28
2022-12-12T20:12:08.343Z,100663.47
2022-12-12T20:14:39.913Z,100661.81
2022-12-12T20:17:17.660Z,100661.03
2022-12-12T20:19:49.835Z,100662.59
2022-12-12T20:22:21.093Z,100662.13
2022-12-12T20:24:55.571Z,100658.88
2022-12-12T20:27:30.482Z,100650.81
2022-12-12T20:30:12.235Z,100646.72
2022-12-12T20:32:48.882Z,100651.91
2022-12-12T20:35:19.940Z,100647.47
2022-12-12T20:37:50.532Z,100648.66
2022-12-12T20:40:24.032Z,100644.22
2022-12-12T20:43:01.633Z,100645.41
2022-12-12T20:45:38.958Z,100644.59
2022-12-12T20:48:13.997Z,100656.19
2022-12-12T20:50:48.347Z,100655.38
2022-12-12T20:53:18.669Z,100656.13
2022-12-12T20:55:48.670Z,100657.28
2022-12-12T20:58:18.771Z,100652.06
2022-12-12T21:00:49.138Z,100654.88
2022-12-12T21:03:21.649Z,100652.44
2022-12-12T21:05:55.450Z,100652.75
2022-12-12T21:08:28.297Z,100649.13
2022-12-12T21:10:59.155Z,100648.69
2022-12-12T21:13:29.716Z,100647.06
2022-12-12T21:16:02.596Z,100647.44
2022-12-12T21:18:35.456Z,100633.72
2022-12-12T21:21:06.814Z,100638.09
2022-12-12T21:23:37.716Z,100631.28
2022-12-12T21:26:09.598Z,100633.28
2022-12-12T21:28:43.971Z,100638.47
2022-12-12T21:31:19.605Z,100639.66
2022-12-12T21:33:58.123Z,100642.47
2022-12-12T21:36:31.983Z,100646.44
2022-12-12T21:39:06.274Z,100639.19
2022-12-12T21:41:39.070Z,100639.56
2022-12-12T21:44:10.376Z,100645.53
2022-12-12T21:46:43.709Z,100639.91
2022-12-12T21:49:28.137Z,100629.06
2022-12-12T21:52:03.752Z,100638.66
2022-12-12T21:54:34.340Z,100637.88
2022-12-12T21:57:08.268Z,100642.66
2022-12-12T21:59:39.259Z,100633.41
2022-12-12T22:02:11.228Z,100638.22
2022-12-12T22:04:45.290Z,100638.22
2022-12-12T22:07:16.395Z,100623.69
2022-12-12T22:09:58.156Z,100632.13
2022-12-12T22:12:44.111Z,100624.06
2022-12-12T22:15:28.613Z,100632.88
2022-12-12T22:17:59.777Z,100642.13
2022-12-12T22:20:37.042Z,100632.88
2022-12-12T22:23:08.860Z,100624.00
2022-12-12T22:25:39.805Z,100625.56
2022-12-12T22:28:11.064Z,100631.19
2022-12-12T22:30:42.716Z,100631.53
2022-12-12T22:33:14.258Z,100631.91
2022-12-12T22:35:46.462Z,100632.75
2022-12-12T22:38:16.531Z,100638.34
2022-12-12T22:40:59.353Z,100634.72
2022-12-12T22:43:30.332Z,100639.53
2022-12-12T22:46:08.016Z,100633.91
2022-12-12T22:48:40.928Z,100630.28
2022-12-12T22:51:23.528Z,100633.91
2022-12-12T22:53:57.064Z,100637.91
2022-12-12T22:56:30.743Z,100637.06
2022-12-12T22:59:01.385Z,100637.91
2022-12-12T23:01:32.895Z,100635.09
2022-12-12T23:04:03.731Z,100643.53
2022-12-12T23:06:38.719Z,100635.09
2022-12-12T23:09:16.357Z,100642.69
2022-12-12T23:12:01.040Z,100637.91
2022-12-12T23:14:31.196Z,100639.88
2022-12-12T23:17:03.880Z,100631.44
2022-12-12T23:19:33.833Z,100648.31
2022-12-12T23:22:05.485Z,100638.25
2022-12-12T23:24:35.904Z,100637.44
2022-12-12T23:27:06.523Z,100645.88
2022-12-12T23:29:38.545Z,100644.25
2022-12-12T23:32:09.255Z,100646.25
2022-12-12T23:34:39.539Z,100648.22
2022-12-12T23:37:26.159Z,100645.44
2022-12-12T23:39:56.234Z,100643.78
2022-12-12T23:42:26.305Z,100639.34
2022-12-12T23:44:56.585Z,100638.53
2022-12-12T23:47:29.843Z,100643.34
2022-12-12T23:50:03.267Z,100644.16
2022-12-12T23:52:35.664Z,100648.16
2022-12-12T23:55:06.843Z,100649.78
2022-12-12T23:57:36.854Z,100649.34
